Time;durP1;ratioP1;P1;durP2;ratioP2;P2;SDS_P1;SDS_P2;PMS_P1;PMS_P2;Temp;Humidity;BMP_temperature;BMP_pressure;BME280_temperature;BME280_humidity;BME280_pressure;Samples;Min_cycle;Max_cycle;Signal;HPM_P1;HPM_P2
2021/07/23 00:00:09;;;;;;;5.75;3.05;;;19.30;75.50;;;;;;5073275;28;20070;-84
2021/07/23 00:02:35;;;;;;;5.63;2.78;;;19.30;75.40;;;;;;5073433;28;20044;-84
2021/07/23 00:05:00;;;;;;;7.45;3.15;;;19.30;75.30;;;;;;5072375;28;20059;-84
2021/07/23 00:07:26;;;;;;;6.35;3.53;;;19.30;75.30;;;;;;5073058;28;20127;-84
2021/07/23 00:09:51;;;;;;;5.07;3.10;;;19.30;75.20;;;;;;5073339;28;20070;-84
2021/07/23 00:12:17;;;;;;;8.93;3.30;;;19.30;75.20;;;;;;5072756;28;20044;-85
2021/07/23 00:14:43;;;;;;;5.22;3.15;;;19.30;75.00;;;;;;5073338;28;20500;-85
2021/07/23 00:17:09;;;;;;;6.20;3.40;;;19.30;75.10;;;;;;5072011;28;20127;-85
2021/07/23 00:19:34;;;;;;;7.25;3.25;;;19.30;75.20;;;;;;5073184;28;20045;-84
2021/07/23 00:22:00;;;;;;;5.00;3.08;;;19.30;75.20;;;;;;5072994;28;20063;-85
2021/07/23 00:24:26;;;;;;;5.10;3.00;;;19.30;75.10;;;;;;5070358;28;20806;-85
2021/07/23 00:26:52;;;;;;;6.75;3.72;;;19.30;75.10;;;;;;5072553;28;20512;-85
2021/07/23 00:29:19;;;;;;;4.90;3.17;;;19.20;75.00;;;;;;5072974;28;20141;-85
2021/07/23 00:31:44;;;;;;;5.82;3.40;;;19.20;75.10;;;;;;5072377;28;20051;-85
2021/07/23 00:34:10;;;;;;;6.43;3.38;;;19.20;75.00;;;;;;5060879;28;20049;-84
2021/07/23 00:36:36;;;;;;;5.65;3.40;;;19.20;75.80;;;;;;5053251;28;20131;-85
2021/07/23 00:39:02;;;;;;;5.47;3.30;;;19.20;75.40;;;;;;5051677;28;20041;-85
2021/07/23 00:41:27;;;;;;;7.93;3.70;;;19.20;75.50;;;;;;5052771;28;20078;-85
2021/07/23 00:43:53;;;;;;;7.50;3.90;;;19.20;75.60;;;;;;5053244;28;20049;-84
2021/07/23 00:46:19;;;;;;;6.30;3.90;;;19.20;75.90;;;;;;5051923;28;20048;-85
2021/07/23 00:48:46;;;;;;;5.85;3.70;;;19.20;76.10;;;;;;5052752;28;20049;-85
2021/07/23 00:51:12;;;;;;;4.70;3.45;;;19.20;76.40;;;;;;5052753;28;20123;-85
2021/07/23 00:53:37;;;;;;;6.07;3.55;;;19.10;76.30;;;;;;5061657;28;20132;-85
2021/07/23 00:56:03;;;;;;;8.63;4.00;;;19.10;76.50;;;;;;5072492;28;20510;-84
2021/07/23 00:58:30;;;;;;;7.40;3.88;;;19.10;76.50;;;;;;5072778;28;20045;-85
2021/07/23 01:00:59;;;;;;;5.82;3.70;;;19.10;76.70;;;;;;5071647;28;20099;-85
2021/07/23 01:03:26;;;;;;;5.43;3.60;;;19.10;76.70;;;;;;5075514;28;20048;-85
2021/07/23 01:05:52;;;;;;;6.10;4.03;;;19.10;76.80;;;;;;5070825;28;20071;-85
2021/07/23 01:08:18;;;;;;;6.50;3.70;;;19.10;77.00;;;;;;5055776;28;20049;-86
2021/07/23 01:10:44;;;;;;;5.95;3.72;;;19.10;76.50;;;;;;5056603;28;20040;-85
2021/07/23 01:13:12;;;;;;;7.35;4.25;;;19.00;76.60;;;;;;5056025;28;20045;-85
2021/07/23 01:15:38;;;;;;;5.60;4.00;;;19.00;77.00;;;;;;5055525;28;20103;-85
2021/07/23 01:18:03;;;;;;;10.00;4.07;;;19.00;76.60;;;;;;5056227;28;20041;-85
2021/07/23 01:20:29;;;;;;;6.30;3.83;;;19.00;76.70;;;;;;5055421;28;20413;-85
2021/07/23 01:22:58;;;;;;;8.57;4.00;;;19.00;76.60;;;;;;5067461;28;20561;-85
2021/07/23 01:25:24;;;;;;;6.70;4.25;;;19.00;76.90;;;;;;5072423;28;20045;-85
2021/07/23 01:27:51;;;;;;;5.93;3.78;;;19.00;77.00;;;;;;5055326;28;20067;-85
2021/07/23 01:30:20;;;;;;;6.05;4.13;;;19.00;76.90;;;;;;5055775;28;20052;-85
2021/07/23 01:32:46;;;;;;;6.18;3.60;;;19.00;76.80;;;;;;5056580;28;20124;-85
2021/07/23 01:35:12;;;;;;;10.75;4.50;;;19.00;77.60;;;;;;5055268;28;20162;-85
2021/07/23 01:37:43;;;;;;;8.43;4.18;;;19.00;77.00;;;;;;5055986;28;20048;-85
2021/07/23 01:40:10;;;;;;;6.90;3.97;;;19.00;77.10;;;;;;5075303;28;20056;-85
2021/07/23 01:42:37;;;;;;;5.85;4.05;;;19.00;77.10;;;;;;5073346;28;20055;-85
2021/07/23 01:45:04;;;;;;;6.15;4.00;;;19.00;76.70;;;;;;5075827;28;20098;-86
2021/07/23 01:47:29;;;;;;;6.70;4.20;;;19.00;77.00;;;;;;5075889;28;20041;-85
2021/07/23 01:49:55;;;;;;;8.07;4.45;;;19.00;77.00;;;;;;5074884;28;20519;-85
2021/07/23 01:52:21;;;;;;;6.90;4.53;;;19.00;76.70;;;;;;5068639;28;20049;-85
2021/07/23 01:54:47;;;;;;;5.75;4.07;;;19.00;76.80;;;;;;5055415;28;20052;-85
2021/07/23 01:57:13;;;;;;;8.48;4.35;;;18.90;76.90;;;;;;5054558;28;20045;-85
2021/07/23 01:59:38;;;;;;;6.65;4.35;;;18.90;77.00;;;;;;5037638;28;20049;-85
2021/07/23 02:02:05;;;;;;;7.45;4.65;;;18.90;76.90;;;;;;5055397;28;20447;-85
2021/07/23 02:04:30;;;;;;;6.03;4.30;;;18.90;77.30;;;;;;5054742;28;20056;-85
2021/07/23 02:06:57;;;;;;;6.55;4.03;;;18.90;77.40;;;;;;5055604;28;20044;-85
2021/07/23 02:09:22;;;;;;;7.22;4.35;;;18.90;77.70;;;;;;5055353;28;20140;-85
2021/07/23 02:11:48;;;;;;;8.10;4.38;;;18.90;77.70;;;;;;5070626;28;20140;-85
2021/07/23 02:14:14;;;;;;;6.80;4.18;;;18.90;77.50;;;;;;5074955;28;20071;-87
2021/07/23 02:16:39;;;;;;;7.40;4.82;;;18.90;77.60;;;;;;5074565;28;20048;-86
2021/07/23 02:19:06;;;;;;;6.60;4.32;;;18.90;77.60;;;;;;5074834;28;20131;-87
2021/07/23 02:21:34;;;;;;;6.30;4.32;;;18.80;77.40;;;;;;5074698;28;20060;-86
2021/07/23 02:24:00;;;;;;;6.15;4.30;;;18.90;77.80;;;;;;5054343;28;20049;-86
2021/07/23 02:26:26;;;;;;;6.40;4.30;;;18.90;78.00;;;;;;5055046;28;20053;-87
2021/07/23 02:28:52;;;;;;;8.88;4.38;;;18.80;78.10;;;;;;5054740;28;20374;-87
2021/07/23 02:31:18;;;;;;;6.97;4.10;;;18.80;77.40;;;;;;5053931;28;20053;-87
2021/07/23 02:33:43;;;;;;;7.88;4.85;;;18.80;77.30;;;;;;5054645;28;20049;-86
2021/07/23 02:36:09;;;;;;;9.85;5.40;;;18.80;77.50;;;;;;5054803;28;20136;-86
2021/07/23 02:38:36;;;;;;;5.80;3.97;;;18.80;77.20;;;;;;5054333;28;20170;-86
2021/07/23 02:41:02;;;;;;;7.40;4.50;;;18.80;77.20;;;;;;5054537;28;20136;-86
2021/07/23 02:43:28;;;;;;;7.05;4.72;;;18.80;77.20;;;;;;5070012;28;20099;-86
2021/07/23 02:45:54;;;;;;;6.93;4.30;;;18.80;77.50;;;;;;5073635;28;20449;-86
2021/07/23 02:48:20;;;;;;;7.93;4.75;;;18.80;77.80;;;;;;5074317;28;20392;-86
2021/07/23 02:50:46;;;;;;;6.63;4.50;;;18.80;78.00;;;;;;5074571;28;20048;-86
2021/07/23 02:53:11;;;;;;;6.55;4.80;;;18.80;77.90;;;;;;5059795;28;20041;-86
2021/07/23 02:55:37;;;;;;;8.90;4.35;;;18.80;77.90;;;;;;5054194;28;20439;-86
2021/07/23 02:58:03;;;;;;;6.80;4.35;;;18.80;77.80;;;;;;5054597;28;20098;-87
2021/07/23 03:00:29;;;;;;;7.80;4.30;;;18.80;78.00;;;;;;5053613;28;20049;-86
2021/07/23 03:02:55;;;;;;;7.40;4.85;;;18.70;77.50;;;;;;5054440;28;20099;-86
2021/07/23 03:05:21;;;;;;;8.35;5.10;;;18.70;77.90;;;;;;5054292;28;20052;-87
2021/07/23 03:07:53;;;;;;;9.40;5.28;;;18.80;77.80;;;;;;5053709;28;20052;-86
2021/07/23 03:10:18;;;;;;;7.22;4.20;;;18.70;77.50;;;;;;5053756;28;20072;-87
2021/07/23 03:12:44;;;;;;;6.82;4.40;;;18.70;77.60;;;;;;5054253;28;20048;-84
2021/07/23 03:15:11;;;;;;;7.03;4.43;;;18.70;77.30;;;;;;5053356;28;20048;-84
2021/07/23 03:17:37;;;;;;;6.70;4.10;;;18.70;77.60;;;;;;5054468;28;20135;-86
2021/07/23 03:20:04;;;;;;;6.80;4.40;;;18.70;77.60;;;;;;5052560;28;20131;-86
2021/07/23 03:22:29;;;;;;;8.40;4.82;;;18.70;77.80;;;;;;5061339;28;20041;-86
2021/07/23 03:24:56;;;;;;;7.03;4.18;;;18.70;78.00;;;;;;5073335;28;20476;-86
2021/07/23 03:27:22;;;;;;;7.70;4.63;;;18.60;78.10;;;;;;5073080;28;20395;-87
2021/07/23 03:29:48;;;;;;;7.10;4.30;;;18.70;78.40;;;;;;5073469;28;20048;-86
2021/07/23 03:32:13;;;;;;;7.43;4.50;;;18.60;78.40;;;;;;5073687;28;20083;-86
2021/07/23 03:34:39;;;;;;;6.45;4.40;;;18.70;78.60;;;;;;5073266;28;20408;-86
2021/07/23 03:37:05;;;;;;;7.78;4.75;;;18.60;78.40;;;;;;5073203;28;20051;-86
2021/07/23 03:39:31;;;;;;;6.90;4.63;;;18.60;78.50;;;;;;5073140;28;20125;-86
2021/07/23 03:41:56;;;;;;;7.45;4.68;;;18.60;78.60;;;;;;5072839;28;20059;-87
2021/07/23 03:44:22;;;;;;;8.02;5.00;;;18.60;78.40;;;;;;5073295;28;20104;-86
2021/07/23 03:46:48;;;;;;;7.00;4.53;;;18.60;78.30;;;;;;5073866;28;20123;-87
2021/07/23 03:49:15;;;;;;;6.63;4.22;;;18.60;78.20;;;;;;5072587;28;20094;-86
2021/07/23 03:51:40;;;;;;;7.43;4.38;;;18.60;77.60;;;;;;5072788;28;20052;-86
2021/07/23 03:54:06;;;;;;;7.18;4.40;;;18.60;78.00;;;;;;5053833;28;20444;-86
2021/07/23 03:56:32;;;;;;;6.97;4.47;;;18.60;78.40;;;;;;5052627;28;20053;-86
2021/07/23 03:58:59;;;;;;;7.43;4.18;;;18.60;78.40;;;;;;5053179;28;20055;-87
2021/07/23 04:01:25;;;;;;;6.18;4.40;;;18.60;78.50;;;;;;5053410;28;20075;-86
2021/07/23 04:03:51;;;;;;;6.45;4.03;;;18.60;78.50;;;;;;5052977;28;20103;-86
2021/07/23 04:06:17;;;;;;;6.43;4.38;;;18.60;78.80;;;;;;5053084;28;20049;-84
2021/07/23 04:08:43;;;;;;;6.63;4.20;;;18.60;78.00;;;;;;5053206;28;20082;-86
2021/07/23 04:11:14;;;;;;;6.53;4.50;;;18.60;78.20;;;;;;5052330;28;20045;-86
2021/07/23 04:13:40;;;;;;;7.40;4.78;;;18.60;78.30;;;;;;5053334;28;20045;-86
2021/07/23 04:16:06;;;;;;;6.38;3.95;;;18.60;78.50;;;;;;5052981;28;20056;-86
2021/07/23 04:18:31;;;;;;;7.80;4.15;;;18.60;78.20;;;;;;5052429;28;20049;-86
2021/07/23 04:20:57;;;;;;;6.38;4.10;;;18.60;77.60;;;;;;5053067;28;20057;-85
2021/07/23 04:23:23;;;;;;;6.55;4.05;;;18.50;77.70;;;;;;5066766;28;21173;-86
2021/07/23 04:25:48;;;;;;;6.15;4.13;;;18.60;78.00;;;;;;5073207;28;20550;-85
2021/07/23 04:28:16;;;;;;;6.18;4.25;;;18.50;78.20;;;;;;5073018;28;20131;-86
2021/07/23 04:30:41;;;;;;;7.53;4.18;;;18.50;78.30;;;;;;5072640;28;20136;-85
2021/07/23 04:33:07;;;;;;;6.28;4.05;;;18.50;78.50;;;;;;5072898;28;20476;-85
2021/07/23 04:35:33;;;;;;;7.18;4.13;;;18.50;78.30;;;;;;5072951;28;20048;-86
2021/07/23 04:37:58;;;;;;;6.47;4.30;;;18.50;77.90;;;;;;5074881;28;20044;-85
2021/07/23 04:40:25;;;;;;;7.35;4.47;;;18.50;78.20;;;;;;5077019;28;20090;-85
2021/07/23 04:42:50;;;;;;;7.22;3.70;;;18.50;78.20;;;;;;5064554;28;20402;-86
2021/07/23 04:45:16;;;;;;;7.40;4.13;;;18.50;78.20;;;;;;5055898;28;20056;-85
2021/07/23 04:47:42;;;;;;;7.30;4.55;;;18.50;78.50;;;;;;5056952;28;20120;-85
2021/07/23 04:50:08;;;;;;;6.28;4.50;;;18.50;78.40;;;;;;5056601;28;20047;-85
2021/07/23 04:52:33;;;;;;;8.25;4.22;;;18.50;78.60;;;;;;5056114;28;20044;-85
2021/07/23 04:55:07;;;;;;;6.72;3.85;;;18.50;78.40;;;;;;5056471;28;20060;-86
2021/07/23 04:57:33;;;;;;;8.80;4.40;;;18.50;78.40;;;;;;5056927;28;20070;-86
2021/07/23 04:59:59;;;;;;;6.85;4.20;;;18.50;78.50;;;;;;5066473;28;20048;-86
2021/07/23 05:02:24;;;;;;;6.28;3.85;;;18.50;78.30;;;;;;5076755;28;20052;-85
2021/07/23 05:04:52;;;;;;;8.73;4.53;;;18.50;77.60;;;;;;5076557;28;20067;-85
2021/07/23 05:07:20;;;;;;;6.10;3.95;;;18.50;77.90;;;;;;5075615;28;20500;-86
2021/07/23 05:09:46;;;;;;;9.63;4.90;;;18.50;78.00;;;;;;5076505;28;20164;-85
2021/07/23 05:12:12;;;;;;;6.25;3.95;;;18.50;78.10;;;;;;5076311;28;20055;-85
2021/07/23 05:14:38;;;;;;;7.63;4.20;;;18.50;78.20;;;;;;5075877;28;20496;-85
2021/07/23 05:17:04;;;;;;;5.90;4.03;;;18.50;78.50;;;;;;5076076;28;20098;-85
2021/07/23 05:19:30;;;;;;;8.10;4.32;;;18.50;77.90;;;;;;5064701;28;20055;-85
2021/07/23 05:21:56;;;;;;;7.03;3.97;;;18.40;78.30;;;;;;5056121;28;20139;-85
2021/07/23 05:24:22;;;;;;;9.48;5.20;;;18.50;78.70;;;;;;5056070;28;20041;-85
2021/07/23 05:26:47;;;;;;;6.88;4.30;;;18.50;78.60;;;;;;5062568;28;20052;-85
2021/07/23 05:29:13;;;;;;;6.30;4.00;;;18.40;78.40;;;;;;5075913;28;20446;-85
2021/07/23 05:31:40;;;;;;;6.13;4.53;;;18.40;78.60;;;;;;5076436;28;20179;-85
2021/07/23 05:34:06;;;;;;;6.97;4.07;;;18.40;78.70;;;;;;5075266;28;20072;-86
2021/07/23 05:36:31;;;;;;;6.50;3.95;;;18.40;78.70;;;;;;5076112;28;20114;-85
2021/07/23 05:38:57;;;;;;;7.82;4.68;;;18.40;78.80;;;;;;5067614;28;20503;-85
2021/07/23 05:41:23;;;;;;;7.07;4.38;;;18.40;78.90;;;;;;5055110;28;20072;-85
2021/07/23 05:43:48;;;;;;;6.70;4.03;;;18.40;78.90;;;;;;5055816;28;20131;-86
2021/07/23 05:46:15;;;;;;;7.63;4.28;;;18.40;78.80;;;;;;5055666;28;20045;-86
2021/07/23 05:48:41;;;;;;;7.20;4.68;;;18.40;78.80;;;;;;5054511;28;20056;-85
2021/07/23 05:51:09;;;;;;;8.50;4.50;;;18.40;78.80;;;;;;5055804;28;20047;-85
2021/07/23 05:53:35;;;;;;;6.72;4.30;;;18.50;78.70;;;;;;5055966;28;20048;-86
2021/07/23 05:56:02;;;;;;;7.28;4.40;;;18.50;78.80;;;;;;5054617;28;20057;-86
2021/07/23 05:58:28;;;;;;;6.63;4.25;;;18.50;78.70;;;;;;5056368;28;20527;-85
2021/07/23 06:00:55;;;;;;;6.57;4.50;;;18.50;78.20;;;;;;5055570;28;20048;-86
2021/07/23 06:03:20;;;;;;;6.57;4.50;;;18.50;78.40;;;;;;5054503;28;20064;-86
2021/07/23 06:05:47;;;;;;;6.32;4.13;;;18.50;78.30;;;;;;5055452;28;20053;-86
2021/07/23 06:08:13;;;;;;;7.18;3.90;;;18.50;78.50;;;;;;5055509;28;20052;-86
2021/07/23 06:10:38;;;;;;;6.43;4.00;;;18.50;78.60;;;;;;5054874;28;20079;-86
2021/07/23 06:13:04;;;;;;;7.93;4.53;;;18.50;78.50;;;;;;5055154;28;20045;-86
2021/07/23 06:15:30;;;;;;;5.35;3.58;;;18.50;78.40;;;;;;5055134;28;20093;-86
2021/07/23 06:17:57;;;;;;;6.35;4.15;;;18.50;78.60;;;;;;5057085;28;20041;-86
2021/07/23 06:20:23;;;;;;;7.07;4.18;;;18.50;78.60;;;;;;5075347;28;20056;-86
2021/07/23 06:22:53;;;;;;;7.70;4.53;;;18.50;78.60;;;;;;5074318;28;20044;-85
2021/07/23 06:25:18;;;;;;;6.32;4.50;;;18.50;78.50;;;;;;5075147;28;20074;-86
2021/07/23 06:27:47;;;;;;;6.57;4.38;;;18.50;78.50;;;;;;5075079;28;20165;-85
2021/07/23 06:30:12;;;;;;;7.40;4.30;;;18.50;78.20;;;;;;5073900;28;20076;-85
2021/07/23 06:32:38;;;;;;;7.65;5.13;;;18.50;78.60;;;;;;5075179;28;20531;-85
2021/07/23 06:35:04;;;;;;;7.63;4.35;;;18.50;78.70;;;;;;5074710;28;20048;-85
2021/07/23 06:37:29;;;;;;;8.60;4.68;;;18.50;78.80;;;;;;5073263;28;20095;-86
2021/07/23 06:39:55;;;;;;;7.22;4.45;;;18.50;78.80;;;;;;5074568;28;20086;-85
2021/07/23 06:42:21;;;;;;;7.40;4.35;;;18.50;78.80;;;;;;5074279;28;20053;-85
2021/07/23 06:44:48;;;;;;;6.82;4.60;;;18.50;78.60;;;;;;5074046;28;20048;-85
2021/07/23 06:47:13;;;;;;;7.82;4.65;;;18.50;78.70;;;;;;5074899;28;20060;-85
2021/07/23 06:49:39;;;;;;;6.38;4.22;;;18.50;78.60;;;;;;5072524;28;20045;-85
2021/07/23 06:52:05;;;;;;;7.13;4.57;;;18.50;78.80;;;;;;5072959;28;20055;-85
2021/07/23 06:54:31;;;;;;;8.45;4.40;;;18.50;78.80;;;;;;5074768;28;20052;-85
2021/07/23 06:56:56;;;;;;;6.90;4.93;;;18.50;78.80;;;;;;5074778;28;20060;-86
2021/07/23 06:59:22;;;;;;;7.25;4.57;;;18.60;79.00;;;;;;5053799;28;20412;-86
2021/07/23 07:01:48;;;;;;;7.20;4.32;;;18.50;78.80;;;;;;5054614;28;20057;-87
2021/07/23 07:04:14;;;;;;;6.38;4.65;;;18.60;78.90;;;;;;5054484;28;20543;-85
2021/07/23 07:06:40;;;;;;;9.20;5.68;;;18.60;78.90;;;;;;5053501;28;20053;-78
2021/07/23 07:09:06;;;;;;;12.88;9.15;;;18.60;78.90;;;;;;5058868;28;20037;-78
2021/07/23 07:11:31;;;;;;;9.65;5.43;;;18.60;79.20;;;;;;5070124;28;20063;-79
2021/07/23 07:13:57;;;;;;;11.35;7.25;;;18.60;79.00;;;;;;5070658;28;20122;-80
2021/07/23 07:16:23;;;;;;;11.65;8.13;;;18.60;78.70;;;;;;5073676;28;20450;-79
2021/07/23 07:18:48;;;;;;;10.73;6.97;;;18.60;79.40;;;;;;5063916;28;20382;-83
2021/07/23 07:21:14;;;;;;;7.32;5.18;;;18.50;79.30;;;;;;5060476;28;20056;-85
2021/07/23 07:23:41;;;;;;;8.50;5.72;;;18.50;79.20;;;;;;5072791;28;20049;-86
2021/07/23 07:26:10;;;;;;;8.15;5.10;;;18.60;79.10;;;;;;5073046;28;20123;-83
2021/07/23 07:28:35;;;;;;;7.32;5.65;;;18.60;79.10;;;;;;5073679;28;20051;-84
2021/07/23 07:31:01;;;;;;;10.25;8.60;;;18.60;79.10;;;;;;5056868;28;20132;-86
2021/07/23 07:33:29;;;;;;;10.60;7.00;;;18.60;79.30;;;;;;5054524;28;20942;-85
2021/07/23 07:35:54;;;;;;;11.23;7.40;;;18.60;79.30;;;;;;5060793;28;20053;-85
2021/07/23 07:38:20;;;;;;;12.10;8.20;;;18.50;79.00;;;;;;5065174;28;20044;-85
2021/07/23 07:40:45;;;;;;;8.77;6.03;;;18.60;79.10;;;;;;5065062;28;20055;-84
2021/07/23 07:43:11;;;;;;;11.35;7.95;;;18.60;79.30;;;;;;5057150;28;20044;-84
2021/07/23 07:45:37;;;;;;;10.07;6.38;;;18.50;79.20;;;;;;5060573;28;20056;-84
2021/07/23 07:48:03;;;;;;;9.57;6.30;;;18.50;79.30;;;;;;5054420;28;20389;-84
2021/07/23 07:50:30;;;;;;;8.93;6.50;;;18.50;79.30;;;;;;5073327;28;20106;-85
2021/07/23 07:52:56;;;;;;;7.28;5.78;;;18.60;79.50;;;;;;5072737;28;20039;-87
2021/07/23 07:55:21;;;;;;;10.52;6.68;;;18.60;79.50;;;;;;5072215;28;20052;-86
2021/07/23 07:57:47;;;;;;;9.85;6.68;;;18.60;79.50;;;;;;5071680;28;20137;-83
2021/07/23 08:00:13;;;;;;;8.13;6.45;;;18.60;79.60;;;;;;5061675;28;20068;-85
2021/07/23 08:02:39;;;;;;;9.25;6.32;;;18.60;79.20;;;;;;5064854;28;20057;-85
2021/07/23 08:05:05;;;;;;;9.60;6.70;;;18.60;79.30;;;;;;5071891;28;20044;-85
2021/07/23 08:07:33;;;;;;;8.70;6.93;;;18.70;79.40;;;;;;5071165;28;20174;-85
2021/07/23 08:10:02;;;;;;;12.23;7.80;;;18.70;79.40;;;;;;5067427;28;20071;-85
2021/07/23 08:12:31;;;;;;;10.32;7.18;;;18.70;79.30;;;;;;5052911;28;20053;-85
2021/07/23 08:15:00;;;;;;;9.68;7.32;;;18.70;79.40;;;;;;5066393;28;20052;-84
2021/07/23 08:17:28;;;;;;;9.25;6.85;;;18.80;79.40;;;;;;5072541;28;20055;-85
2021/07/23 08:19:58;;;;;;;10.10;6.93;;;18.80;79.40;;;;;;5058386;28;20077;-84
2021/07/23 08:22:24;;;;;;;10.98;6.82;;;18.80;79.20;;;;;;5065442;28;20044;-85
2021/07/23 08:24:51;;;;;;;9.88;7.05;;;18.80;79.30;;;;;;5072776;28;20049;-85
2021/07/23 08:27:18;;;;;;;9.43;7.10;;;18.80;79.20;;;;;;5063863;28;20049;-85
2021/07/23 08:29:44;;;;;;;12.38;7.85;;;18.90;79.90;;;;;;5056360;28;20044;-85
2021/07/23 08:32:12;;;;;;;10.45;7.88;;;18.90;79.30;;;;;;5073080;28;20109;-85
2021/07/23 08:34:38;;;;;;;10.95;8.57;;;18.90;79.20;;;;;;5072764;28;20400;-85
2021/07/23 08:37:04;;;;;;;8.55;6.93;;;18.90;79.30;;;;;;5070064;28;20063;-84
2021/07/23 08:39:30;;;;;;;11.82;8.73;;;18.90;79.10;;;;;;5056023;28;20124;-85
2021/07/23 08:41:56;;;;;;;15.32;9.13;;;19.00;79.30;;;;;;5064040;28;20123;-84
2021/07/23 08:44:22;;;;;;;10.23;7.40;;;19.00;79.50;;;;;;5058145;28;20037;-84
2021/07/23 08:46:49;;;;;;;16.75;10.35;;;19.00;79.40;;;;;;5067941;28;20055;-84
2021/07/23 08:49:16;;;;;;;11.85;8.07;;;19.00;79.90;;;;;;5092707;28;20087;-85
2021/07/23 08:51:49;;;;;;;11.07;8.18;;;19.00;79.80;;;;;;5074746;28;20453;-85
2021/07/23 08:54:15;;;;;;;9.48;7.25;;;19.00;79.50;;;;;;5065935;28;20049;-85
2021/07/23 08:56:47;;;;;;;12.88;8.73;;;19.00;79.40;;;;;;5053543;28;20057;-84
2021/07/23 08:59:14;;;;;;;11.63;8.55;;;19.10;79.30;;;;;;5068476;28;20515;-85
2021/07/23 09:01:59;;;;;;;11.40;8.70;;;19.10;79.60;;;;;;5056271;28;20050;-85
2021/07/23 09:04:36;;;;;;;14.57;10.23;;;19.10;79.20;;;;;;5052751;28;20041;-85
2021/07/23 09:07:14;;;;;;;12.93;9.48;;;19.20;79.50;;;;;;5053934;28;20087;-85
2021/07/23 09:09:41;;;;;;;17.15;10.57;;;19.10;79.20;;;;;;5053087;28;20049;-86
2021/07/23 09:12:07;;;;;;;11.85;9.40;;;19.20;79.50;;;;;;5070660;28;20055;-83
2021/07/23 09:14:33;;;;;;;15.60;9.27;;;19.20;79.40;;;;;;5070842;28;20047;-86
2021/07/23 09:16:58;;;;;;;15.73;10.00;;;19.20;79.50;;;;;;5061221;28;20139;-84
2021/07/23 09:19:24;;;;;;;11.70;8.13;;;19.20;79.60;;;;;;5063362;28;20072;-84
2021/07/23 09:21:58;;;;;;;11.00;8.43;;;19.30;79.50;;;;;;5072045;28;20056;-85
2021/07/23 09:24:25;;;;;;;13.45;8.55;;;19.30;79.30;;;;;;5074378;28;20048;-85
2021/07/23 09:26:51;;;;;;;14.30;8.73;;;19.40;79.20;;;;;;5075620;28;20044;-84
2021/07/23 09:29:17;;;;;;;14.52;9.27;;;19.40;79.10;;;;;;5074196;28;20143;-85
2021/07/23 09:32:06;;;;;;;13.68;8.02;;;19.40;78.30;;;;;;5075359;28;20045;-85
2021/07/23 09:34:32;;;;;;;9.77;7.72;;;19.50;78.10;;;;;;5055883;28;20037;-89
2021/07/23 09:37:08;;;;;;;9.15;7.50;;;19.50;78.40;;;;;;5067648;28;20049;-87
2021/07/23 09:39:35;;;;;;;11.57;7.80;;;19.50;78.40;;;;;;5075379;28;20132;-80
2021/07/23 09:42:01;;;;;;;10.35;7.78;;;19.60;78.70;;;;;;5058473;28;20147;-86
2021/07/23 09:44:27;;;;;;;10.52;7.78;;;19.60;78.50;;;;;;5055647;28;20099;-86
2021/07/23 09:46:53;;;;;;;11.30;7.90;;;19.70;78.50;;;;;;5055012;28;20056;-86
2021/07/23 09:49:28;;;;;;;10.80;6.80;;;19.70;78.10;;;;;;5072930;28;20480;-89
2021/07/23 09:52:05;;;;;;;10.60;7.30;;;19.80;78.00;;;;;;5075487;28;20466;-85
2021/07/23 09:54:30;;;;;;;10.57;7.50;;;19.80;78.00;;;;;;5074317;28;20044;-85
2021/07/23 09:56:56;;;;;;;8.90;6.97;;;19.90;78.10;;;;;;5075010;28;20059;-85
2021/07/23 09:59:32;;;;;;;9.77;6.95;;;19.90;77.80;;;;;;5071539;28;20067;-85
2021/07/23 10:02:01;;;;;;;8.63;6.72;;;20.00;77.50;;;;;;5073816;28;20056;-84
2021/07/23 10:04:36;;;;;;;11.38;6.68;;;20.10;77.30;;;;;;5074860;28;20056;-84
2021/07/23 10:07:15;;;;;;;10.65;6.78;;;20.10;76.70;;;;;;5072137;28;20059;-84
2021/07/23 10:09:44;;;;;;;9.98;6.88;;;20.20;76.90;;;;;;5074637;28;20051;-87
2021/07/23 10:12:12;;;;;;;11.73;6.60;;;20.30;76.80;;;;;;5072800;28;20470;-87
2021/07/23 10:14:40;;;;;;;11.23;6.47;;;20.40;76.60;;;;;;5075328;28;20048;-84
2021/07/23 10:17:08;;;;;;;8.70;5.90;;;20.40;76.50;;;;;;5078597;28;20044;-85
2021/07/23 10:19:35;;;;;;;10.75;6.50;;;20.50;76.40;;;;;;5093560;28;20052;-86
2021/07/23 10:22:01;;;;;;;8.75;6.40;;;20.60;76.30;;;;;;5078638;28;20144;-85
2021/07/23 10:24:31;;;;;;;8.45;5.68;;;20.60;76.30;;;;;;5072978;28;20044;-85
2021/07/23 10:26:57;;;;;;;9.23;6.25;;;20.60;76.10;;;;;;5076785;28;20055;-85
2021/07/23 10:29:47;;;;;;;9.68;5.70;;;20.70;76.00;;;;;;5095165;28;20072;-85
2021/07/23 10:32:25;;;;;;;7.80;5.65;;;20.70;75.70;;;;;;5085423;28;20055;-86
2021/07/23 10:34:52;;;;;;;7.85;5.63;;;20.80;75.60;;;;;;5088984;28;20071;-84
2021/07/23 10:37:30;;;;;;;10.65;5.32;;;20.90;74.90;;;;;;5095593;28;20137;-86
2021/07/23 10:40:07;;;;;;;8.50;5.57;;;20.90;74.70;;;;;;5074678;28;20450;-85
2021/07/23 10:42:44;;;;;;;9.48;5.70;;;20.90;74.40;;;;;;5074248;28;20076;-85
2021/07/23 10:45:14;;;;;;;7.82;5.70;;;21.00;75.00;;;;;;5073466;28;20048;-85
2021/07/23 10:47:44;;;;;;;7.18;5.38;;;21.00;75.20;;;;;;5074563;28;20102;-85
2021/07/23 10:50:27;;;;;;;6.97;5.30;;;21.00;74.90;;;;;;5073355;28;20055;-85
2021/07/23 10:52:54;;;;;;;8.00;5.60;;;21.10;74.80;;;;;;5074178;28;20074;-85
2021/07/23 10:55:24;;;;;;;7.38;5.20;;;21.10;73.90;;;;;;5062587;28;20549;-85
2021/07/23 10:58:05;;;;;;;8.10;5.25;;;21.10;74.50;;;;;;5053595;28;20073;-86
2021/07/23 11:00:52;;;;;;;9.50;5.38;;;21.10;74.50;;;;;;5070435;28;20120;-86
2021/07/23 11:03:44;;;;;;;7.03;5.20;;;21.10;73.30;;;;;;5073854;28;20058;-85
2021/07/23 11:06:14;;;;;;;8.45;4.97;;;21.20;73.40;;;;;;5069134;28;20045;-85
2021/07/23 11:08:49;;;;;;;9.65;5.15;;;21.20;73.10;;;;;;5056244;28;20077;-85
2021/07/23 11:11:17;;;;;;;9.65;5.45;;;21.30;73.90;;;;;;5052916;28;20440;-85
2021/07/23 11:13:44;;;;;;;7.22;4.93;;;21.30;73.80;;;;;;5053993;28;20051;-85
2021/07/23 11:16:15;;;;;;;8.18;5.10;;;21.40;73.90;;;;;;5054026;28;20049;-85
2021/07/23 11:18:57;;;;;;;9.32;5.55;;;21.40;74.20;;;;;;5053131;28;20132;-85
2021/07/23 11:21:33;;;;;;;7.72;5.00;;;21.50;73.70;;;;;;5053814;28;20053;-85
2021/07/23 11:24:00;;;;;;;6.57;4.68;;;21.60;74.10;;;;;;5054568;28;20040;-85
2021/07/23 11:26:26;;;;;;;10.73;4.95;;;21.60;74.30;;;;;;5052865;28;20052;-85
2021/07/23 11:28:54;;;;;;;7.85;4.28;;;21.70;73.70;;;;;;5059113;28;20114;-85
2021/07/23 11:31:39;;;;;;;9.70;4.80;;;21.70;71.40;;;;;;5073324;28;20044;-85
2021/07/23 11:34:22;;;;;;;8.40;4.90;;;21.70;71.60;;;;;;5072195;28;20492;-85
2021/07/23 11:36:49;;;;;;;9.57;4.85;;;21.70;71.40;;;;;;5055716;28;20044;-84
2021/07/23 11:39:15;;;;;;;5.78;3.95;;;21.80;71.30;;;;;;5073248;28;20052;-85
2021/07/23 11:41:58;;;;;;;6.30;4.25;;;21.80;71.30;;;;;;5072995;28;20585;-85
2021/07/23 11:44:24;;;;;;;7.18;4.05;;;21.80;72.30;;;;;;5073291;28;20385;-84
2021/07/23 11:46:50;;;;;;;6.93;4.47;;;21.90;70.70;;;;;;5072811;28;20048;-85
2021/07/23 11:49:16;;;;;;;8.85;4.15;;;21.90;72.20;;;;;;5073075;28;20492;-83
2021/07/23 11:51:43;;;;;;;6.22;4.53;;;21.90;72.00;;;;;;5073642;28;20056;-84
2021/07/23 11:54:10;;;;;;;6.72;4.35;;;22.00;72.60;;;;;;5067543;28;20116;-84
2021/07/23 11:56:39;;;;;;;7.35;4.10;;;22.00;71.30;;;;;;5052952;28;20052;-83
2021/07/23 11:59:05;;;;;;;6.72;4.88;;;22.00;71.20;;;;;;5052925;28;20123;-85
2021/07/23 12:01:38;;;;;;;7.53;4.60;;;22.10;73.10;;;;;;5052794;28;20132;-85
2021/07/23 12:04:05;;;;;;;7.32;4.35;;;22.10;72.20;;;;;;5055546;28;20105;-86
2021/07/23 12:06:32;;;;;;;5.80;4.13;;;22.20;71.90;;;;;;5075078;28;20052;-86
2021/07/23 12:09:02;;;;;;;8.93;4.00;;;22.30;72.50;;;;;;5072047;28;20377;-86
2021/07/23 12:11:32;;;;;;;7.15;3.50;;;22.30;70.40;;;;;;5072588;28;20052;-87
2021/07/23 12:14:11;;;;;;;6.68;4.05;;;22.30;69.60;;;;;;5069410;28;20054;-88
2021/07/23 12:16:39;;;;;;;5.85;3.45;;;22.30;70.90;;;;;;5078622;28;20048;-89
2021/07/23 12:19:09;;;;;;;5.72;3.33;;;22.30;70.10;;;;;;5089681;28;20395;-86
2021/07/23 12:21:36;;;;;;;6.57;3.92;;;22.30;69.50;;;;;;5072225;28;20566;-89
2021/07/23 12:24:08;;;;;;;7.10;3.80;;;22.30;70.90;;;;;;5072373;28;20055;-88
2021/07/23 12:26:41;;;;;;;6.70;4.13;;;22.40;71.20;;;;;;5073643;28;20056;-88
2021/07/23 12:29:15;;;;;;;13.55;4.13;;;22.50;72.50;;;;;;5072775;28;20541;-88
2021/07/23 12:31:41;;;;;;;6.78;3.70;;;22.50;70.50;;;;;;5066755;28;20049;-79
2021/07/23 12:34:18;;;;;;;9.18;4.32;;;22.50;71.70;;;;;;5052878;28;20045;-78
2021/07/23 12:36:49;;;;;;;6.85;4.10;;;22.50;72.10;;;;;;5052418;28;20049;-78
2021/07/23 12:39:15;;;;;;;7.53;4.03;;;22.60;72.00;;;;;;5052966;28;20448;-78
2021/07/23 12:41:42;;;;;;;9.25;4.55;;;22.60;71.70;;;;;;5054347;28;20052;-88
2021/07/23 12:44:15;;;;;;;8.80;4.53;;;22.70;71.40;;;;;;5053021;28;20045;-88
2021/07/23 12:46:49;;;;;;;7.18;4.32;;;22.70;71.90;;;;;;5053552;28;20076;-87